createdAt,value
2023-04-20T00:01:17.025Z,16.50
2023-04-20T00:09:22.439Z,16.50
2023-04-20T00:17:30.514Z,16.50
2023-04-20T00:25:35.968Z,16.40
2023-04-20T00:33:44.098Z,16.40
2023-04-20T00:41:49.539Z,16.20
2023-04-20T00:49:58.399Z,16.10
2023-04-20T00:58:04.672Z,16.20
2023-04-20T01:06:16.390Z,16.30
2023-04-20T01:14:21.840Z,16.40
2023-04-20T01:22:31.494Z,16.50
2023-04-20T01:30:38.089Z,16.50
2023-04-20T01:38:46.127Z,16.50
2023-04-20T01:46:51.676Z,16.40
2023-04-20T01:54:59.711Z,16.50
2023-04-20T02:03:05.382Z,16.40
2023-04-20T02:11:14.255Z,16.20
2023-04-20T02:19:19.825Z,16.20
2023-04-20T02:27:28.033Z,16.20
2023-04-20T02:35:33.546Z,16.30
2023-04-20T02:43:41.563Z,16.30
2023-04-20T02:51:49.715Z,16.20
2023-04-20T02:59:57.999Z,16.10
2023-04-20T03:08:10.356Z,15.90
2023-04-20T03:16:18.715Z,15.80
2023-04-20T03:24:44.192Z,15.80
2023-04-20T03:33:12.782Z,15.80
2023-04-20T03:41:18.707Z,15.80
2023-04-20T03:49:28.511Z,15.80
2023-04-20T03:57:34.021Z,15.80
2023-04-20T04:05:43.825Z,15.80
2023-04-20T04:13:49.360Z,15.70
2023-04-20T04:21:57.904Z,15.70
2023-04-20T04:30:03.790Z,15.80
2023-04-20T04:38:15.726Z,15.80
2023-04-20T04:46:25.766Z,16.00
2023-04-20T04:54:34.003Z,16.10
2023-04-20T05:02:39.811Z,16.40
2023-04-20T05:10:48.351Z,16.60
2023-04-20T05:18:54.042Z,16.90
2023-04-20T05:27:02.115Z,17.10
2023-04-20T05:35:08.133Z,17.70
2023-04-20T05:43:17.622Z,18.10
2023-04-20T05:51:23.602Z,18.70
2023-04-20T05:59:31.920Z,19.00
2023-04-20T06:07:37.532Z,19.60
2023-04-20T06:15:45.967Z,19.80
2023-04-20T06:23:51.942Z,20.10
2023-04-20T06:32:00.124Z,20.60
2023-04-20T06:40:08.538Z,21.10
2023-04-20T06:48:30.871Z,21.20
2023-04-20T06:56:37.922Z,21.50
2023-04-20T07:04:46.068Z,21.70
2023-04-20T07:12:51.612Z,22.20
2023-04-20T07:20:59.713Z,22.10
2023-04-20T07:29:05.202Z,21.70
2023-04-20T07:37:13.260Z,21.90
2023-04-20T07:45:18.721Z,21.50
2023-04-20T07:53:27.143Z,21.50
2023-04-20T08:01:32.635Z,21.60
2023-04-20T08:09:40.934Z,21.80
2023-04-20T08:17:46.463Z,21.70
2023-04-20T08:25:54.595Z,21.90
2023-04-20T08:34:00.210Z,22.10
2023-04-20T08:42:09.450Z,22.60
2023-04-20T08:50:15.059Z,23.40
2023-04-20T08:58:23.201Z,23.80
2023-04-20T09:06:29.840Z,24.30
2023-04-20T09:14:46.073Z,24.80
2023-04-20T09:22:51.607Z,24.40
2023-04-20T09:30:59.714Z,23.90
2023-04-20T09:39:07.024Z,24.00
2023-04-20T09:47:22.136Z,23.80
2023-04-20T09:55:28.404Z,24.00
2023-04-20T10:03:38.117Z,24.70
2023-04-20T10:11:53.498Z,26.00
2023-04-20T10:20:02.632Z,26.10
2023-04-20T10:28:10.761Z,26.30
2023-04-20T10:36:26.495Z,26.80
2023-04-20T10:44:33.347Z,26.50
2023-04-20T10:52:42.454Z,26.40
2023-04-20T11:00:47.858Z,26.90
2023-04-20T11:08:55.939Z,27.70
2023-04-20T11:17:01.476Z,29.70
2023-04-20T11:25:12.170Z,29.40
2023-04-20T11:33:18.295Z,28.20
2023-04-20T11:41:26.522Z,28.10
2023-04-20T11:49:32.676Z,28.20
2023-04-20T11:57:40.778Z,28.10
2023-04-20T12:05:46.373Z,26.90
2023-04-20T12:13:54.823Z,26.80
2023-04-20T12:22:04.683Z,29.20
2023-04-20T12:30:14.094Z,33.90
2023-04-20T12:38:19.562Z,34.30
2023-04-20T12:46:28.087Z,30.80
2023-04-20T12:54:33.895Z,27.90
2023-04-20T13:02:42.102Z,26.00
2023-04-20T13:10:47.845Z,25.20
2023-04-20T13:18:55.929Z,25.10
2023-04-20T13:27:02.024Z,25.40
2023-04-20T13:35:12.686Z,25.40
2023-04-20T13:43:20.793Z,25.50
2023-04-20T13:51:29.768Z,24.80
2023-04-20T13:59:35.303Z,24.60
2023-04-20T14:07:43.332Z,24.70
2023-04-20T14:15:48.854Z,24.50
2023-04-20T14:23:57.503Z,24.20
2023-04-20T14:32:03.218Z,24.00
2023-04-20T14:40:12.719Z,24.00
2023-04-20T14:48:19.343Z,24.20
2023-04-20T14:56:27.441Z,24.00
2023-04-20T15:04:33.250Z,23.70
2023-04-20T15:12:41.476Z,23.20
2023-04-20T15:20:46.956Z,22.70
2023-04-20T15:28:55.483Z,22.30
2023-04-20T15:37:01.319Z,22.20
2023-04-20T15:45:11.982Z,22.00
2023-04-20T15:53:17.457Z,21.70
2023-04-20T16:01:25.560Z,21.70
2023-04-20T16:09:31.114Z,21.70
2023-04-20T16:17:39.192Z,21.80
2023-04-20T16:25:44.670Z,21.90
2023-04-20T16:33:52.890Z,21.70
2023-04-20T16:41:58.762Z,21.50
2023-04-20T16:50:07.803Z,21.40
2023-04-20T16:58:13.272Z,21.40
2023-04-20T17:06:21.503Z,21.30
2023-04-20T17:14:30.516Z,21.20
2023-04-20T17:22:38.644Z,21.10
2023-04-20T17:30:44.342Z,20.90
2023-04-20T17:38:52.366Z,21.00
2023-04-20T17:46:59.513Z,20.70
2023-04-20T17:55:08.851Z,20.50
2023-04-20T18:03:15.286Z,20.40
2023-04-20T18:11:23.523Z,20.40
2023-04-20T18:19:29.091Z,20.30
2023-04-20T18:27:37.208Z,20.10
2023-04-20T18:35:43.182Z,20.10
2023-04-20T18:43:51.289Z,20.00
2023-04-20T18:51:56.987Z,20.00
2023-04-20T19:00:07.589Z,19.90
2023-04-20T19:08:13.085Z,19.80
2023-04-20T19:16:21.434Z,19.90
2023-04-20T19:24:27.010Z,19.70
2023-04-20T19:32:35.078Z,19.60
2023-04-20T19:40:40.951Z,19.30
2023-04-20T19:48:50.984Z,19.20
2023-04-20T19:56:56.512Z,19.20
2023-04-20T20:05:04.579Z,19.20
2023-04-20T20:13:10.195Z,19.10
2023-04-20T20:21:20.573Z,19.10
2023-04-20T20:29:26.034Z,19.00
2023-04-20T20:37:36.122Z,19.00
2023-04-20T20:45:41.771Z,18.90
2023-04-20T20:53:50.066Z,18.70
2023-04-20T21:01:55.726Z,18.70
2023-04-20T21:10:04.418Z,18.60
2023-04-20T21:18:10.056Z,18.50
2023-04-20T21:26:21.297Z,18.60
2023-04-20T21:34:28.338Z,18.50
2023-04-20T21:42:36.635Z,18.30
2023-04-20T21:50:43.879Z,18.20
2023-04-20T21:58:54.032Z,18.30
2023-04-20T22:07:00.853Z,18.10
2023-04-20T22:15:11.562Z,17.90
2023-04-20T22:23:16.982Z,17.90
2023-04-20T22:31:25.057Z,17.60
2023-04-20T22:39:30.515Z,17.50
2023-04-20T22:47:38.662Z,17.40
2023-04-20T22:55:44.206Z,17.20
2023-04-20T23:03:52.375Z,17.10
2023-04-20T23:11:57.949Z,17.10
2023-04-20T23:20:10.476Z,16.90
2023-04-20T23:28:15.966Z,17.00
2023-04-20T23:36:24.110Z,17.00
2023-04-20T23:44:29.514Z,16.80
2023-04-20T23:52:45.921Z,16.80
